sensor_id;sensor_type;location;lat;lon;timestamp;temperature;humidity
22145;DHT22;11238;48.730;11.566;2022-10-23T00:01:24;11.00;99.90
22145;DHT22;11238;48.730;11.566;2022-10-23T00:04:05;11.00;99.90
22145;DHT22;11238;48.730;11.566;2022-10-23T00:06:32;11.00;99.90
22145;DHT22;11238;48.730;11.566;2022-10-23T00:08:59;11.00;99.90
22145;DHT22;11238;48.730;11.566;2022-10-23T00:11:26;11.00;99.90
22145;DHT22;11238;48.730;11.566;2022-10-23T00:13:54;11.00;99.90
22145;DHT22;11238;48.730;11.566;2022-10-23T00:16:20;10.90;99.90
22145;DHT22;11238;48.730;11.566;2022-10-23T00:18:46;10.80;99.90
22145;DHT22;11238;48.730;11.566;2022-10-23T00:21:13;10.90;99.90
22145;DHT22;11238;48.730;11.566;2022-10-23T00:23:39;10.90;99.90
22145;DHT22;11238;48.730;11.566;2022-10-23T00:26:06;10.90;99.90
22145;DHT22;11238;48.730;11.566;2022-10-23T00:28:33;10.90;99.90
22145;DHT22;11238;48.730;11.566;2022-10-23T00:31:03;10.80;99.90
22145;DHT22;11238;48.730;11.566;2022-10-23T00:33:30;10.90;99.90
22145;DHT22;11238;48.730;11.566;2022-10-23T00:35:56;10.90;99.90
22145;DHT22;11238;48.730;11.566;2022-10-23T00:38:22;10.80;99.90
22145;DHT22;11238;48.730;11.566;2022-10-23T00:40:48;10.80;99.90
22145;DHT22;11238;48.730;11.566;2022-10-23T00:43:25;10.70;99.90
22145;DHT22;11238;48.730;11.566;2022-10-23T00:45:51;10.70;99.90
22145;DHT22;11238;48.730;11.566;2022-10-23T00:48:17;10.70;99.90
22145;DHT22;11238;48.730;11.566;2022-10-23T00:50:44;10.70;99.90
22145;DHT22;11238;48.730;11.566;2022-10-23T00:53:12;10.60;99.90
22145;DHT22;11238;48.730;11.566;2022-10-23T00:55:40;10.60;99.90
22145;DHT22;11238;48.730;11.566;2022-10-23T00:58:16;10.60;99.90
22145;DHT22;11238;48.730;11.566;2022-10-23T01:00:53;10.50;99.90
22145;DHT22;11238;48.730;11.566;2022-10-23T01:03:23;10.50;99.90
22145;DHT22;11238;48.730;11.566;2022-10-23T01:06:17;10.40;99.90
22145;DHT22;11238;48.730;11.566;2022-10-23T01:09:05;10.40;99.90
22145;DHT22;11238;48.730;11.566;2022-10-23T01:14:28;10.40;99.90
22145;DHT22;11238;48.730;11.566;2022-10-23T01:22:32;10.30;99.90
22145;DHT22;11238;48.730;11.566;2022-10-23T01:25:18;10.40;99.90
22145;DHT22;11238;48.730;11.566;2022-10-23T01:27:54;10.40;99.90
22145;DHT22;11238;48.730;11.566;2022-10-23T01:30:20;10.30;99.90
22145;DHT22;11238;48.730;11.566;2022-10-23T01:33:12;10.30;99.90
22145;DHT22;11238;48.730;11.566;2022-10-23T01:35:49;10.30;99.90
22145;DHT22;11238;48.730;11.566;2022-10-23T01:38:25;10.30;99.90
22145;DHT22;11238;48.730;11.566;2022-10-23T01:41:19;10.30;99.90
22145;DHT22;11238;48.730;11.566;2022-10-23T01:43:52;10.20;99.90
22145;DHT22;11238;48.730;11.566;2022-10-23T01:46:21;10.20;99.90
22145;DHT22;11238;48.730;11.566;2022-10-23T01:48:52;10.20;99.90
22145;DHT22;11238;48.730;11.566;2022-10-23T01:51:20;10.20;99.90
22145;DHT22;11238;48.730;11.566;2022-10-23T01:53:48;10.10;99.90
22145;DHT22;11238;48.730;11.566;2022-10-23T01:56:19;10.10;99.90
22145;DHT22;11238;48.730;11.566;2022-10-23T01:58:49;10.00;99.90
22145;DHT22;11238;48.730;11.566;2022-10-23T02:01:20;10.00;99.90
22145;DHT22;11238;48.730;11.566;2022-10-23T02:03:51;10.00;99.90
22145;DHT22;11238;48.730;11.566;2022-10-23T02:06:18;10.00;99.90
22145;DHT22;11238;48.730;11.566;2022-10-23T02:08:44;10.00;99.90
22145;DHT22;11238;48.730;11.566;2022-10-23T02:11:13;10.00;99.90
22145;DHT22;11238;48.730;11.566;2022-10-23T02:13:56;10.00;99.90
22145;DHT22;11238;48.730;11.566;2022-10-23T02:16:38;10.00;99.90
22145;DHT22;11238;48.730;11.566;2022-10-23T02:21:51;9.90;99.90
22145;DHT22;11238;48.730;11.566;2022-10-23T02:24:53;9.90;99.90
22145;DHT22;11238;48.730;11.566;2022-10-23T02:27:35;9.90;99.90
22145;DHT22;11238;48.730;11.566;2022-10-23T02:30:08;9.90;99.90
22145;DHT22;11238;48.730;11.566;2022-10-23T02:32:39;9.80;99.90
22145;DHT22;11238;48.730;11.566;2022-10-23T02:35:06;9.70;99.90
22145;DHT22;11238;48.730;11.566;2022-10-23T02:37:32;9.70;99.90
22145;DHT22;11238;48.730;11.566;2022-10-23T02:40:00;9.70;99.90
22145;DHT22;11238;48.730;11.566;2022-10-23T02:42:35;9.60;99.90
22145;DHT22;11238;48.730;11.566;2022-10-23T02:45:28;9.60;99.90
22145;DHT22;11238;48.730;11.566;2022-10-23T02:48:03;9.60;99.90
22145;DHT22;11238;48.730;11.566;2022-10-23T02:50:39;9.60;99.90
22145;DHT22;11238;48.730;11.566;2022-10-23T02:56:32;9.50;99.90
22145;DHT22;11238;48.730;11.566;2022-10-23T02:59:15;9.50;99.90
22145;DHT22;11238;48.730;11.566;2022-10-23T03:01:50;9.50;99.90
22145;DHT22;11238;48.730;11.566;2022-10-23T03:04:21;9.40;99.90
22145;DHT22;11238;48.730;11.566;2022-10-23T03:06:50;9.40;99.90
22145;DHT22;11238;48.730;11.566;2022-10-23T03:09:17;9.40;99.90
22145;DHT22;11238;48.730;11.566;2022-10-23T03:11:43;9.40;99.90
22145;DHT22;11238;48.730;11.566;2022-10-23T03:14:10;9.40;99.90
22145;DHT22;11238;48.730;11.566;2022-10-23T03:16:37;9.40;99.90
22145;DHT22;11238;48.730;11.566;2022-10-23T03:19:03;9.30;99.90
22145;DHT22;11238;48.730;11.566;2022-10-23T03:21:29;9.30;99.90
22145;DHT22;11238;48.730;11.566;2022-10-23T03:23:55;9.30;99.90
22145;DHT22;11238;48.730;11.566;2022-10-23T03:26:28;9.20;99.90
22145;DHT22;11238;48.730;11.566;2022-10-23T03:28:54;9.20;99.90
22145;DHT22;11238;48.730;11.566;2022-10-23T03:31:21;9.20;99.90
22145;DHT22;11238;48.730;11.566;2022-10-23T03:33:53;9.20;99.90
22145;DHT22;11238;48.730;11.566;2022-10-23T03:36:20;9.20;99.90
22145;DHT22;11238;48.730;11.566;2022-10-23T03:38:45;9.20;99.90
22145;DHT22;11238;48.730;11.566;2022-10-23T03:41:11;9.20;99.90
22145;DHT22;11238;48.730;11.566;2022-10-23T03:43:37;9.20;99.90
22145;DHT22;11238;48.730;11.566;2022-10-23T03:46:05;9.10;99.90
22145;DHT22;11238;48.730;11.566;2022-10-23T03:48:35;9.10;99.90
22145;DHT22;11238;48.730;11.566;2022-10-23T03:51:05;9.10;99.90
22145;DHT22;11238;48.730;11.566;2022-10-23T03:53:31;9.10;99.90
22145;DHT22;11238;48.730;11.566;2022-10-23T03:56:00;9.10;99.90
22145;DHT22;11238;48.730;11.566;2022-10-23T03:58:26;9.10;99.90
22145;DHT22;11238;48.730;11.566;2022-10-23T04:00:52;9.10;99.90
22145;DHT22;11238;48.730;11.566;2022-10-23T04:03:18;9.00;99.90
22145;DHT22;11238;48.730;11.566;2022-10-23T04:05:43;9.00;99.90
22145;DHT22;11238;48.730;11.566;2022-10-23T04:08:10;9.00;99.90
22145;DHT22;11238;48.730;11.566;2022-10-23T04:10:36;9.00;99.90
22145;DHT22;11238;48.730;11.566;2022-10-23T04:13:02;8.90;99.90
22145;DHT22;11238;48.730;11.566;2022-10-23T04:15:33;8.90;99.90
22145;DHT22;11238;48.730;11.566;2022-10-23T04:18:00;8.80;99.90
22145;DHT22;11238;48.730;11.566;2022-10-23T04:20:26;8.90;99.90
22145;DHT22;11238;48.730;11.566;2022-10-23T04:22:52;8.90;99.90
22145;DHT22;11238;48.730;11.566;2022-10-23T04:25:17;8.90;99.90
22145;DHT22;11238;48.730;11.566;2022-10-23T04:27:44;8.90;99.90
22145;DHT22;11238;48.730;11.566;2022-10-23T04:30:10;8.90;99.90
22145;DHT22;11238;48.730;11.566;2022-10-23T04:32:37;8.90;99.90
22145;DHT22;11238;48.730;11.566;2022-10-23T04:35:04;9.00;99.90
22145;DHT22;11238;48.730;11.566;2022-10-23T04:37:29;8.90;99.90
22145;DHT22;11238;48.730;11.566;2022-10-23T04:39:55;9.00;99.90
22145;DHT22;11238;48.730;11.566;2022-10-23T04:42:21;9.00;99.90
22145;DHT22;11238;48.730;11.566;2022-10-23T04:44:47;9.00;99.90
22145;DHT22;11238;48.730;11.566;2022-10-23T04:47:13;8.90;99.90
22145;DHT22;11238;48.730;11.566;2022-10-23T04:49:51;8.90;99.90
22145;DHT22;11238;48.730;11.566;2022-10-23T04:52:40;8.90;99.90
22145;DHT22;11238;48.730;11.566;2022-10-23T04:55:25;8.80;99.90
22145;DHT22;11238;48.730;11.566;2022-10-23T04:58:11;8.80;99.90
22145;DHT22;11238;48.730;11.566;2022-10-23T05:00:37;8.80;99.90
22145;DHT22;11238;48.730;11.566;2022-10-23T05:03:03;8.90;99.90
22145;DHT22;11238;48.730;11.566;2022-10-23T05:05:34;8.90;99.90
22145;DHT22;11238;48.730;11.566;2022-10-23T05:08:21;8.90;99.90
22145;DHT22;11238;48.730;11.566;2022-10-23T05:11:09;8.90;99.90
22145;DHT22;11238;48.730;11.566;2022-10-23T05:13:40;8.90;99.90
22145;DHT22;11238;48.730;11.566;2022-10-23T05:16:07;8.90;99.90
22145;DHT22;11238;48.730;11.566;2022-10-23T05:18:36;9.00;99.90
22145;DHT22;11238;48.730;11.566;2022-10-23T05:21:15;8.90;99.90
22145;DHT22;11238;48.730;11.566;2022-10-23T05:23:43;8.90;99.90
22145;DHT22;11238;48.730;11.566;2022-10-23T05:26:12;9.00;99.90
22145;DHT22;11238;48.730;11.566;2022-10-23T05:28:43;8.90;99.90
22145;DHT22;11238;48.730;11.566;2022-10-23T05:31:12;9.00;99.90
22145;DHT22;11238;48.730;11.566;2022-10-23T05:33:41;9.00;99.90
22145;DHT22;11238;48.730;11.566;2022-10-23T05:36:08;9.00;99.90
22145;DHT22;11238;48.730;11.566;2022-10-23T05:38:34;8.90;99.90
22145;DHT22;11238;48.730;11.566;2022-10-23T05:41:08;8.90;99.90
22145;DHT22;11238;48.730;11.566;2022-10-23T05:43:34;9.00;99.90
22145;DHT22;11238;48.730;11.566;2022-10-23T05:46:18;9.10;99.90
22145;DHT22;11238;48.730;11.566;2022-10-23T05:49:04;9.10;99.90
22145;DHT22;11238;48.730;11.566;2022-10-23T05:51:41;9.00;99.90
22145;DHT22;11238;48.730;11.566;2022-10-23T05:54:37;9.10;99.90
22145;DHT22;11238;48.730;11.566;2022-10-23T05:57:33;9.10;99.90
22145;DHT22;11238;48.730;11.566;2022-10-23T06:00:03;9.20;99.90
22145;DHT22;11238;48.730;11.566;2022-10-23T06:02:41;9.20;99.90
22145;DHT22;11238;48.730;11.566;2022-10-23T06:05:20;9.20;99.90
22145;DHT22;11238;48.730;11.566;2022-10-23T06:07:59;9.30;99.90
22145;DHT22;11238;48.730;11.566;2022-10-23T06:10:26;9.30;99.90
22145;DHT22;11238;48.730;11.566;2022-10-23T06:12:55;9.30;99.90
22145;DHT22;11238;48.730;11.566;2022-10-23T06:15:21;9.30;99.90
22145;DHT22;11238;48.730;11.566;2022-10-23T06:18:03;9.30;99.90
22145;DHT22;11238;48.730;11.566;2022-10-23T06:20:37;9.30;99.90
22145;DHT22;11238;48.730;11.566;2022-10-23T06:23:17;9.30;99.90
22145;DHT22;11238;48.730;11.566;2022-10-23T06:26:07;9.30;99.90
22145;DHT22;11238;48.730;11.566;2022-10-23T06:28:47;9.30;99.90
22145;DHT22;11238;48.730;11.566;2022-10-23T06:31:15;9.30;99.90
22145;DHT22;11238;48.730;11.566;2022-10-23T06:33:43;9.30;99.90
22145;DHT22;11238;48.730;11.566;2022-10-23T06:36:09;9.30;99.90
22145;DHT22;11238;48.730;11.566;2022-10-23T06:38:37;9.30;99.90
22145;DHT22;11238;48.730;11.566;2022-10-23T06:41:10;9.30;99.90
22145;DHT22;11238;48.730;11.566;2022-10-23T06:43:37;9.20;99.90
22145;DHT22;11238;48.730;11.566;2022-10-23T06:46:14;9.20;99.90
22145;DHT22;11238;48.730;11.566;2022-10-23T06:49:16;9.20;99.90
22145;DHT22;11238;48.730;11.566;2022-10-23T06:51:47;9.20;99.90
22145;DHT22;11238;48.730;11.566;2022-10-23T06:54:14;9.20;99.90
22145;DHT22;11238;48.730;11.566;2022-10-23T06:56:48;9.20;99.90
22145;DHT22;11238;48.730;11.566;2022-10-23T06:59:18;9.20;99.90
22145;DHT22;11238;48.730;11.566;2022-10-23T07:01:47;9.20;99.90
22145;DHT22;11238;48.730;11.566;2022-10-23T07:04:13;9.20;99.90
22145;DHT22;11238;48.730;11.566;2022-10-23T07:06:41;9.20;99.90
22145;DHT22;11238;48.730;11.566;2022-10-23T07:09:07;9.30;99.90
22145;DHT22;11238;48.730;11.566;2022-10-23T07:11:48;9.30;99.90
22145;DHT22;11238;48.730;11.566;2022-10-23T07:14:27;9.40;99.90
22145;DHT22;11238;48.730;11.566;2022-10-23T07:16:58;9.50;99.90
22145;DHT22;11238;48.730;11.566;2022-10-23T07:19:27;9.50;99.90
22145;DHT22;11238;48.730;11.566;2022-10-23T07:21:54;9.60;99.90
22145;DHT22;11238;48.730;11.566;2022-10-23T07:24:40;9.70;99.90
22145;DHT22;11238;48.730;11.566;2022-10-23T07:27:17;9.80;99.90
22145;DHT22;11238;48.730;11.566;2022-10-23T07:29:49;9.80;99.90
22145;DHT22;11238;48.730;11.566;2022-10-23T07:32:15;9.90;99.90
22145;DHT22;11238;48.730;11.566;2022-10-23T07:35:18;9.90;99.90
22145;DHT22;11238;48.730;11.566;2022-10-23T07:37:52;9.80;99.90
22145;DHT22;11238;48.730;11.566;2022-10-23T07:40:19;9.80;99.90
22145;DHT22;11238;48.730;11.566;2022-10-23T07:42:45;9.90;99.90
22145;DHT22;11238;48.730;11.566;2022-10-23T07:45:12;9.90;99.90
22145;DHT22;11238;48.730;11.566;2022-10-23T07:47:41;10.00;99.90
22145;DHT22;11238;48.730;11.566;2022-10-23T07:50:08;10.10;99.90
22145;DHT22;11238;48.730;11.566;2022-10-23T07:52:34;10.20;99.90
22145;DHT22;11238;48.730;11.566;2022-10-23T07:55:19;10.30;99.90
22145;DHT22;11238;48.730;11.566;2022-10-23T07:57:49;10.40;99.90
22145;DHT22;11238;48.730;11.566;2022-10-23T08:00:24;10.50;99.90
22145;DHT22;11238;48.730;11.566;2022-10-23T08:02:58;10.60;99.90
22145;DHT22;11238;48.730;11.566;2022-10-23T08:05:24;10.70;99.90
22145;DHT22;11238;48.730;11.566;2022-10-23T08:07:55;10.70;99.90
22145;DHT22;11238;48.730;11.566;2022-10-23T08:10:22;10.80;99.90
22145;DHT22;11238;48.730;11.566;2022-10-23T08:12:48;10.80;99.90
22145;DHT22;11238;48.730;11.566;2022-10-23T08:15:15;10.90;99.90
22145;DHT22;11238;48.730;11.566;2022-10-23T08:17:50;11.00;99.90
22145;DHT22;11238;48.730;11.566;2022-10-23T08:20:21;11.00;99.90
22145;DHT22;11238;48.730;11.566;2022-10-23T08:22:50;11.10;99.90
22145;DHT22;11238;48.730;11.566;2022-10-23T08:25:21;11.10;99.90
22145;DHT22;11238;48.730;11.566;2022-10-23T08:27:47;11.20;99.90
22145;DHT22;11238;48.730;11.566;2022-10-23T08:30:14;11.30;99.90
22145;DHT22;11238;48.730;11.566;2022-10-23T08:32:41;11.40;99.90
22145;DHT22;11238;48.730;11.566;2022-10-23T08:35:08;11.50;99.90
22145;DHT22;11238;48.730;11.566;2022-10-23T08:37:35;11.60;99.90
22145;DHT22;11238;48.730;11.566;2022-10-23T08:40:00;11.70;99.90
22145;DHT22;11238;48.730;11.566;2022-10-23T08:42:55;11.80;99.90
22145;DHT22;11238;48.730;11.566;2022-10-23T08:45:35;11.90;99.90
22145;DHT22;11238;48.730;11.566;2022-10-23T08:48:33;12.00;99.90
22145;DHT22;11238;48.730;11.566;2022-10-23T08:51:36;11.90;99.90
22145;DHT22;11238;48.730;11.566;2022-10-23T08:54:10;11.80;99.90
22145;DHT22;11238;48.730;11.566;2022-10-23T08:56:41;11.70;99.90
22145;DHT22;11238;48.730;11.566;2022-10-23T08:59:29;11.60;99.90
22145;DHT22;11238;48.730;11.566;2022-10-23T09:02:25;11.60;99.90
22145;DHT22;11238;48.730;11.566;2022-10-23T09:04:52;11.60;99.90
22145;DHT22;11238;48.730;11.566;2022-10-23T09:13:27;11.80;99.90
22145;DHT22;11238;48.730;11.566;2022-10-23T09:15:50;11.90;99.90
22145;DHT22;11238;48.730;11.566;2022-10-23T09:18:23;12.00;99.90
22145;DHT22;11238;48.730;11.566;2022-10-23T09:20:49;12.20;99.90
22145;DHT22;11238;48.730;11.566;2022-10-23T09:23:22;12.30;99.90
22145;DHT22;11238;48.730;11.566;2022-10-23T09:25:50;12.40;99.90
22145;DHT22;11238;48.730;11.566;2022-10-23T09:28:24;12.60;99.90
22145;DHT22;11238;48.730;11.566;2022-10-23T09:30:50;12.80;99.90
22145;DHT22;11238;48.730;11.566;2022-10-23T09:33:23;12.90;99.90
22145;DHT22;11238;48.730;11.566;2022-10-23T09:41:12;13.60;99.90
22145;DHT22;11238;48.730;11.566;2022-10-23T09:43:38;13.80;99.90
22145;DHT22;11238;48.730;11.566;2022-10-23T09:46:06;14.00;99.90
22145;DHT22;11238;48.730;11.566;2022-10-23T09:48:34;14.20;99.90
22145;DHT22;11238;48.730;11.566;2022-10-23T09:51:02;14.50;99.90
22145;DHT22;11238;48.730;11.566;2022-10-23T09:53:37;14.70;99.90
22145;DHT22;11238;48.730;11.566;2022-10-23T09:56:06;14.90;99.90
22145;DHT22;11238;48.730;11.566;2022-10-23T09:58:42;15.10;99.90
22145;DHT22;11238;48.730;11.566;2022-10-23T10:01:28;15.20;99.90
22145;DHT22;11238;48.730;11.566;2022-10-23T10:04:04;15.50;99.90
22145;DHT22;11238;48.730;11.566;2022-10-23T10:06:32;15.60;99.90
22145;DHT22;11238;48.730;11.566;2022-10-23T10:08:59;15.70;99.90
22145;DHT22;11238;48.730;11.566;2022-10-23T10:11:50;15.90;99.90
22145;DHT22;11238;48.730;11.566;2022-10-23T10:22:50;16.00;99.90
22145;DHT22;11238;48.730;11.566;2022-10-23T10:25:51;15.80;99.90
22145;DHT22;11238;48.730;11.566;2022-10-23T10:31:08;15.80;99.90
22145;DHT22;11238;48.730;11.566;2022-10-23T10:39:01;16.10;99.90
22145;DHT22;11238;48.730;11.566;2022-10-23T10:41:40;16.30;99.90
22145;DHT22;11238;48.730;11.566;2022-10-23T10:44:36;16.50;99.90
22145;DHT22;11238;48.730;11.566;2022-10-23T10:57:47;17.50;99.90
22145;DHT22;11238;48.730;11.566;2022-10-23T11:00:19;17.50;99.90
22145;DHT22;11238;48.730;11.566;2022-10-23T11:02:49;17.60;99.90
22145;DHT22;11238;48.730;11.566;2022-10-23T11:08:11;18.00;99.90
22145;DHT22;11238;48.730;11.566;2022-10-23T11:10:41;18.20;99.90
22145;DHT22;11238;48.730;11.566;2022-10-23T11:13:24;18.30;99.90
22145;DHT22;11238;48.730;11.566;2022-10-23T11:15:51;18.50;99.90
22145;DHT22;11238;48.730;11.566;2022-10-23T11:18:25;18.50;99.90
22145;DHT22;11238;48.730;11.566;2022-10-23T11:31:56;18.90;99.90
22145;DHT22;11238;48.730;11.566;2022-10-23T11:37:22;19.00;99.90
22145;DHT22;11238;48.730;11.566;2022-10-23T11:40:03;18.90;99.90
22145;DHT22;11238;48.730;11.566;2022-10-23T11:45:24;18.90;99.90
22145;DHT22;11238;48.730;11.566;2022-10-23T11:53:37;19.00;99.90
22145;DHT22;11238;48.730;11.566;2022-10-23T11:58:47;19.20;99.90
22145;DHT22;11238;48.730;11.566;2022-10-23T12:01:41;19.10;99.90
22145;DHT22;11238;48.730;11.566;2022-10-23T12:06:57;19.30;99.90
22145;DHT22;11238;48.730;11.566;2022-10-23T12:09:36;19.30;99.90
22145;DHT22;11238;48.730;11.566;2022-10-23T12:14:34;19.10;99.90
22145;DHT22;11238;48.730;11.566;2022-10-23T12:17:00;19.00;99.90
22145;DHT22;11238;48.730;11.566;2022-10-23T12:19:46;19.00;99.90
22145;DHT22;11238;48.730;11.566;2022-10-23T12:22:13;18.90;99.90
22145;DHT22;11238;48.730;11.566;2022-10-23T12:27:33;19.00;99.90
22145;DHT22;11238;48.730;11.566;2022-10-23T12:30:18;19.00;99.90
22145;DHT22;11238;48.730;11.566;2022-10-23T12:38:12;19.10;99.90
22145;DHT22;11238;48.730;11.566;2022-10-23T12:40:36;19.10;99.90
22145;DHT22;11238;48.730;11.566;2022-10-23T12:43:01;19.20;99.90
22145;DHT22;11238;48.730;11.566;2022-10-23T12:45:36;19.10;99.90
22145;DHT22;11238;48.730;11.566;2022-10-23T12:48:03;19.10;99.90
22145;DHT22;11238;48.730;11.566;2022-10-23T12:50:30;19.20;99.90
22145;DHT22;11238;48.730;11.566;2022-10-23T12:55:27;19.10;99.90
22145;DHT22;11238;48.730;11.566;2022-10-23T12:57:54;19.10;99.90
22145;DHT22;11238;48.730;11.566;2022-10-23T13:00:22;19.10;99.90
22145;DHT22;11238;48.730;11.566;2022-10-23T13:02:58;19.10;99.90
22145;DHT22;11238;48.730;11.566;2022-10-23T13:05:24;19.10;99.90
22145;DHT22;11238;48.730;11.566;2022-10-23T13:07:52;19.10;99.90
22145;DHT22;11238;48.730;11.566;2022-10-23T13:10:26;19.20;99.90
22145;DHT22;11238;48.730;11.566;2022-10-23T13:12:59;19.20;99.90
22145;DHT22;11238;48.730;11.566;2022-10-23T13:15:40;19.20;99.90
22145;DHT22;11238;48.730;11.566;2022-10-23T13:18:07;19.20;99.90
22145;DHT22;11238;48.730;11.566;2022-10-23T13:20:39;19.30;99.90
22145;DHT22;11238;48.730;11.566;2022-10-23T13:31:04;19.30;99.90
22145;DHT22;11238;48.730;11.566;2022-10-23T13:33:38;19.30;99.90
22145;DHT22;11238;48.730;11.566;2022-10-23T13:38:42;19.10;99.90
22145;DHT22;11238;48.730;11.566;2022-10-23T13:41:18;19.00;99.90
22145;DHT22;11238;48.730;11.566;2022-10-23T13:43:45;18.90;99.90
22145;DHT22;11238;48.730;11.566;2022-10-23T13:46:16;18.90;99.90
22145;DHT22;11238;48.730;11.566;2022-10-23T13:48:43;18.70;99.90
22145;DHT22;11238;48.730;11.566;2022-10-23T13:51:23;18.70;99.90
22145;DHT22;11238;48.730;11.566;2022-10-23T13:53:52;18.70;99.90
22145;DHT22;11238;48.730;11.566;2022-10-23T13:56:20;18.70;99.90
22145;DHT22;11238;48.730;11.566;2022-10-23T13:58:46;18.80;99.90
22145;DHT22;11238;48.730;11.566;2022-10-23T14:01:22;18.80;99.90
22145;DHT22;11238;48.730;11.566;2022-10-23T14:03:51;18.80;99.90
22145;DHT22;11238;48.730;11.566;2022-10-23T14:06:17;18.80;99.90
22145;DHT22;11238;48.730;11.566;2022-10-23T14:08:44;18.80;99.90
22145;DHT22;11238;48.730;11.566;2022-10-23T14:11:11;18.80;99.90
22145;DHT22;11238;48.730;11.566;2022-10-23T14:13:37;18.80;99.90
22145;DHT22;11238;48.730;11.566;2022-10-23T14:16:03;18.80;99.90
22145;DHT22;11238;48.730;11.566;2022-10-23T14:18:29;19.00;99.90
22145;DHT22;11238;48.730;11.566;2022-10-23T14:21:02;19.10;99.90
22145;DHT22;11238;48.730;11.566;2022-10-23T14:23:28;19.20;99.90
22145;DHT22;11238;48.730;11.566;2022-10-23T14:26:01;19.30;99.90
22145;DHT22;11238;48.730;11.566;2022-10-23T14:28:27;19.40;99.90
22145;DHT22;11238;48.730;11.566;2022-10-23T14:30:53;19.50;99.90
22145;DHT22;11238;48.730;11.566;2022-10-23T14:33:18;19.50;99.90
22145;DHT22;11238;48.730;11.566;2022-10-23T14:35:44;19.50;99.90
22145;DHT22;11238;48.730;11.566;2022-10-23T14:38:10;19.50;99.90
22145;DHT22;11238;48.730;11.566;2022-10-23T14:40:37;19.50;99.90
22145;DHT22;11238;48.730;11.566;2022-10-23T14:43:04;19.50;99.90
22145;DHT22;11238;48.730;11.566;2022-10-23T14:45:30;19.40;99.90
22145;DHT22;11238;48.730;11.566;2022-10-23T14:47:56;19.40;99.90
22145;DHT22;11238;48.730;11.566;2022-10-23T14:50:22;19.30;99.90
22145;DHT22;11238;48.730;11.566;2022-10-23T14:52:47;19.20;99.90
22145;DHT22;11238;48.730;11.566;2022-10-23T14:55:13;19.20;99.90
22145;DHT22;11238;48.730;11.566;2022-10-23T14:57:38;19.10;99.90
22145;DHT22;11238;48.730;11.566;2022-10-23T15:00:08;18.90;99.90
22145;DHT22;11238;48.730;11.566;2022-10-23T15:02:34;18.90;99.90
22145;DHT22;11238;48.730;11.566;2022-10-23T15:04:59;18.90;99.90
22145;DHT22;11238;48.730;11.566;2022-10-23T15:07:25;18.80;99.90
22145;DHT22;11238;48.730;11.566;2022-10-23T15:09:51;18.80;99.90
22145;DHT22;11238;48.730;11.566;2022-10-23T15:12:17;18.70;99.90
22145;DHT22;11238;48.730;11.566;2022-10-23T15:14:43;18.60;99.90
22145;DHT22;11238;48.730;11.566;2022-10-23T15:17:09;18.60;99.90
22145;DHT22;11238;48.730;11.566;2022-10-23T15:19:34;18.50;99.90
22145;DHT22;11238;48.730;11.566;2022-10-23T15:22:00;18.50;99.90
22145;DHT22;11238;48.730;11.566;2022-10-23T15:24:26;18.40;99.90
22145;DHT22;11238;48.730;11.566;2022-10-23T15:26:52;18.40;99.90
22145;DHT22;11238;48.730;11.566;2022-10-23T15:29:18;18.30;99.90
22145;DHT22;11238;48.730;11.566;2022-10-23T15:31:56;18.30;99.90
22145;DHT22;11238;48.730;11.566;2022-10-23T15:34:25;18.30;99.90
22145;DHT22;11238;48.730;11.566;2022-10-23T15:36:52;18.20;99.90
22145;DHT22;11238;48.730;11.566;2022-10-23T15:39:22;18.20;99.90
22145;DHT22;11238;48.730;11.566;2022-10-23T15:41:54;18.10;99.90
22145;DHT22;11238;48.730;11.566;2022-10-23T15:44:23;17.90;99.90
22145;DHT22;11238;48.730;11.566;2022-10-23T15:46:49;17.70;99.90
22145;DHT22;11238;48.730;11.566;2022-10-23T15:49:16;17.60;99.90
22145;DHT22;11238;48.730;11.566;2022-10-23T15:51:43;17.60;99.90
22145;DHT22;11238;48.730;11.566;2022-10-23T15:54:12;17.50;99.90
22145;DHT22;11238;48.730;11.566;2022-10-23T15:56:47;17.30;99.90
22145;DHT22;11238;48.730;11.566;2022-10-23T15:59:14;17.30;99.90
22145;DHT22;11238;48.730;11.566;2022-10-23T16:01:40;17.20;99.90
22145;DHT22;11238;48.730;11.566;2022-10-23T16:04:06;17.10;99.90
22145;DHT22;11238;48.730;11.566;2022-10-23T16:06:31;17.00;99.90
22145;DHT22;11238;48.730;11.566;2022-10-23T16:08:57;16.90;99.90
22145;DHT22;11238;48.730;11.566;2022-10-23T16:11:26;16.80;99.90
22145;DHT22;11238;48.730;11.566;2022-10-23T16:13:57;16.80;99.90
22145;DHT22;11238;48.730;11.566;2022-10-23T16:16:23;16.80;99.90
22145;DHT22;11238;48.730;11.566;2022-10-23T16:18:49;16.70;99.90
22145;DHT22;11238;48.730;11.566;2022-10-23T16:21:21;16.60;99.90
22145;DHT22;11238;48.730;11.566;2022-10-23T16:23:48;16.60;99.90
22145;DHT22;11238;48.730;11.566;2022-10-23T16:26:14;16.60;99.90
22145;DHT22;11238;48.730;11.566;2022-10-23T16:28:41;16.60;99.90
22145;DHT22;11238;48.730;11.566;2022-10-23T16:31:15;16.60;99.90
22145;DHT22;11238;48.730;11.566;2022-10-23T16:33:41;16.40;99.90
22145;DHT22;11238;48.730;11.566;2022-10-23T16:36:08;16.50;99.90
22145;DHT22;11238;48.730;11.566;2022-10-23T16:38:54;16.40;99.90
22145;DHT22;11238;48.730;11.566;2022-10-23T16:41:40;16.40;99.90
22145;DHT22;11238;48.730;11.566;2022-10-23T16:44:15;16.30;99.90
22145;DHT22;11238;48.730;11.566;2022-10-23T16:46:53;16.30;99.90
22145;DHT22;11238;48.730;11.566;2022-10-23T16:49:19;16.30;99.90
22145;DHT22;11238;48.730;11.566;2022-10-23T16:51:45;16.30;99.90
22145;DHT22;11238;48.730;11.566;2022-10-23T16:54:10;16.20;99.90
22145;DHT22;11238;48.730;11.566;2022-10-23T16:56:36;16.10;99.90
22145;DHT22;11238;48.730;11.566;2022-10-23T16:59:02;16.00;99.90
22145;DHT22;11238;48.730;11.566;2022-10-23T17:01:29;15.90;99.90
22145;DHT22;11238;48.730;11.566;2022-10-23T17:03:56;15.90;99.90
22145;DHT22;11238;48.730;11.566;2022-10-23T17:06:27;15.90;99.90
22145;DHT22;11238;48.730;11.566;2022-10-23T17:08:54;15.70;99.90
22145;DHT22;11238;48.730;11.566;2022-10-23T17:11:33;15.70;99.90
22145;DHT22;11238;48.730;11.566;2022-10-23T17:14:02;15.60;99.90
22145;DHT22;11238;48.730;11.566;2022-10-23T17:16:41;15.60;99.90
22145;DHT22;11238;48.730;11.566;2022-10-23T17:19:11;15.60;99.90
22145;DHT22;11238;48.730;11.566;2022-10-23T17:21:38;15.50;99.90
22145;DHT22;11238;48.730;11.566;2022-10-23T17:24:04;15.50;99.90
22145;DHT22;11238;48.730;11.566;2022-10-23T17:26:30;15.50;99.90
22145;DHT22;11238;48.730;11.566;2022-10-23T17:28:58;15.40;99.90
22145;DHT22;11238;48.730;11.566;2022-10-23T17:31:26;15.40;99.90
22145;DHT22;11238;48.730;11.566;2022-10-23T17:33:55;15.30;99.90